createdAt,value
2022-10-18T00:01:06.823Z,101292.97
2022-10-18T00:03:44.420Z,101298.53
2022-10-18T00:06:12.488Z,101304.63
2022-10-18T00:08:40.694Z,101299.13
2022-10-18T00:11:08.997Z,101294.91
2022-10-18T00:13:37.744Z,101300.34
2022-10-18T00:16:10.848Z,101302.25
2022-10-18T00:18:38.879Z,101298.91
2022-10-18T00:21:17.669Z,101294.28
2022-10-18T00:23:46.777Z,101289.97
2022-10-18T00:26:17.665Z,101283.03
2022-10-18T00:28:46.920Z,101288.44
2022-10-18T00:31:17.510Z,101284.38
2022-10-18T00:33:47.360Z,101277.88
2022-10-18T00:36:15.707Z,101267.31
2022-10-18T00:38:44.500Z,101266.63
2022-10-18T00:41:16.069Z,101278.81
2022-10-18T00:43:58.018Z,101271.13
2022-10-18T00:46:31.086Z,101270.41
2022-10-18T00:49:02.541Z,101268.06
2022-10-18T00:51:39.959Z,101270.34
2022-10-18T00:54:07.942Z,101263.59
2022-10-18T00:56:36.069Z,101259.94
2022-10-18T00:59:04.351Z,101258.16
2022-10-18T01:01:31.992Z,101258.97
2022-10-18T01:03:59.929Z,101251.03
2022-10-18T01:06:29.345Z,101254.75
2022-10-18T01:09:18.357Z,101234.50
2022-10-18T01:12:12.552Z,101243.22
2022-10-18T01:14:52.306Z,101241.41
2022-10-18T01:17:28.922Z,101232.59
2022-10-18T01:20:12.795Z,101221.94
2022-10-18T01:23:04.523Z,101216.94
2022-10-18T01:25:46.063Z,101198.19
2022-10-18T01:28:28.267Z,101219.72
2022-10-18T01:31:06.109Z,101216.84
2022-10-18T01:33:51.162Z,101212.41
2022-10-18T01:36:28.535Z,101209.84
2022-10-18T01:39:01.354Z,101206.72
2022-10-18T01:41:30.161Z,101211.03
2022-10-18T01:44:02.118Z,101196.22
2022-10-18T01:46:30.999Z,101205.00
2022-10-18T01:48:59.593Z,101200.00
2022-10-18T01:51:29.672Z,101199.34
2022-10-18T01:53:57.878Z,101199.28
2022-10-18T01:56:31.421Z,101200.09
2022-10-18T01:59:19.990Z,101200.09
2022-10-18T02:02:35.213Z,101201.91
2022-10-18T02:08:32.922Z,101203.13
2022-10-18T02:11:02.771Z,101210.16
2022-10-18T02:13:45.407Z,101210.28
2022-10-18T02:16:19.672Z,101212.88
2022-10-18T02:18:55.915Z,101213.13
2022-10-18T02:21:25.959Z,101208.88
2022-10-18T02:23:55.154Z,101206.06
2022-10-18T02:26:23.289Z,101204.66
2022-10-18T02:28:51.317Z,101208.06
2022-10-18T02:31:29.927Z,101211.78
2022-10-18T02:34:20.468Z,101211.13
2022-10-18T02:36:57.423Z,101216.50
2022-10-18T02:39:31.414Z,101213.97
2022-10-18T02:41:59.773Z,101207.75
2022-10-18T02:44:27.668Z,101207.88
2022-10-18T02:46:55.522Z,101210.53
2022-10-18T02:49:23.253Z,101207.25
2022-10-18T02:51:51.082Z,101208.34
2022-10-18T02:54:18.654Z,101205.66
2022-10-18T02:56:46.382Z,101203.09
2022-10-18T02:59:13.982Z,101206.50
2022-10-18T03:01:41.769Z,101215.38
2022-10-18T03:04:09.521Z,101214.59
2022-10-18T03:06:37.399Z,101213.44
2022-10-18T03:09:06.489Z,101206.94
2022-10-18T03:11:34.453Z,101205.00
2022-10-18T03:14:02.062Z,101210.38
2022-10-18T03:16:30.057Z,101216.53
2022-10-18T03:18:57.631Z,101210.66
2022-10-18T03:21:25.405Z,101209.94
2022-10-18T03:23:53.021Z,101209.16
2022-10-18T03:26:21.628Z,101208.78
2022-10-18T03:28:49.295Z,101209.81
2022-10-18T03:31:17.509Z,101210.03
2022-10-18T03:33:45.260Z,101206.31
2022-10-18T03:36:13.351Z,101203.06
2022-10-18T03:38:40.943Z,101203.91
2022-10-18T03:41:09.020Z,101200.44
2022-10-18T03:43:36.690Z,101208.50
2022-10-18T03:46:04.735Z,101198.13
2022-10-18T03:48:32.607Z,101203.44
2022-10-18T03:51:00.363Z,101205.41
2022-10-18T03:53:27.910Z,101200.22
2022-10-18T03:55:56.997Z,101202.00
2022-10-18T03:58:24.893Z,101206.53
2022-10-18T04:00:54.366Z,101203.88
2022-10-18T04:03:23.417Z,101201.91
2022-10-18T04:05:51.635Z,101200.22
2022-10-18T04:08:19.754Z,101206.88
2022-10-18T04:10:47.737Z,101205.31
2022-10-18T04:13:15.695Z,101214.84
2022-10-18T04:15:44.049Z,101203.66
2022-10-18T04:18:11.674Z,101202.75
2022-10-18T04:20:39.531Z,101207.09
2022-10-18T04:23:07.064Z,101202.81
2022-10-18T04:25:34.929Z,101207.97
2022-10-18T04:28:04.688Z,101208.91
2022-10-18T04:30:32.516Z,101215.06
2022-10-18T04:33:00.202Z,101201.22
2022-10-18T04:35:28.443Z,101205.63
2022-10-18T04:37:56.114Z,101210.09
2022-10-18T04:40:23.856Z,101210.91
2022-10-18T04:42:51.375Z,101204.97
2022-10-18T04:45:19.129Z,101212.13
2022-10-18T04:47:46.698Z,101206.94
2022-10-18T04:50:14.411Z,101213.22
2022-10-18T04:52:42.614Z,101215.00
2022-10-18T04:55:10.547Z,101217.63
2022-10-18T04:57:38.156Z,101216.72
2022-10-18T05:00:06.603Z,101220.19
2022-10-18T05:02:34.444Z,101222.88
2022-10-18T05:05:02.481Z,101214.22
2022-10-18T05:07:30.446Z,101216.81
2022-10-18T05:09:58.302Z,101227.34
2022-10-18T05:12:25.838Z,101231.75
2022-10-18T05:14:56.264Z,101222.19
2022-10-18T05:17:23.953Z,101226.41
2022-10-18T05:19:51.782Z,101226.59
2022-10-18T05:22:19.407Z,101229.06
2022-10-18T05:24:47.236Z,101230.63
2022-10-18T05:27:14.852Z,101238.31
2022-10-18T05:29:42.699Z,101233.81
2022-10-18T05:32:10.242Z,101237.28
2022-10-18T05:34:38.091Z,101246.78
2022-10-18T05:37:06.704Z,101249.13
2022-10-18T05:39:34.521Z,101243.88
2022-10-18T05:42:02.504Z,101240.34
2022-10-18T05:44:30.396Z,101242.59
2022-10-18T05:46:58.129Z,101245.09
2022-10-18T05:49:25.962Z,101240.63
2022-10-18T05:51:53.632Z,101242.19
2022-10-18T05:54:21.537Z,101250.44
2022-10-18T05:56:49.346Z,101248.66
2022-10-18T05:59:17.142Z,101259.66
2022-10-18T06:01:45.544Z,101247.78
2022-10-18T06:04:13.394Z,101257.91
2022-10-18T06:06:40.968Z,101260.63
2022-10-18T06:09:08.984Z,101266.22
2022-10-18T06:11:37.384Z,101261.50
2022-10-18T06:14:05.638Z,101267.34
2022-10-18T06:16:33.418Z,101262.41
2022-10-18T06:19:01.298Z,101258.31
2022-10-18T06:21:28.962Z,101262.56
2022-10-18T06:23:58.923Z,101263.63
2022-10-18T06:26:27.846Z,101265.44
2022-10-18T06:28:55.813Z,101261.94
2022-10-18T06:31:23.550Z,101255.81
2022-10-18T06:33:51.429Z,101257.09
2022-10-18T06:36:22.264Z,101262.75
2022-10-18T06:38:50.818Z,101268.56
2022-10-18T06:41:19.350Z,101274.13
2022-10-18T06:43:51.273Z,101271.69
2022-10-18T06:46:19.223Z,101269.66
2022-10-18T06:48:47.308Z,101262.53
2022-10-18T06:51:15.408Z,101276.13
2022-10-18T06:53:53.442Z,101274.97
2022-10-18T06:56:31.034Z,101266.53
2022-10-18T07:01:32.484Z,101268.34
2022-10-18T07:04:00.396Z,101268.00
2022-10-18T07:06:28.179Z,101271.47
2022-10-18T07:08:57.059Z,101276.88
2022-10-18T07:11:26.842Z,101274.91
2022-10-18T07:14:00.864Z,101280.84
2022-10-18T07:16:29.045Z,101278.84
2022-10-18T07:18:57.018Z,101275.03
2022-10-18T07:21:26.174Z,101277.16
2022-10-18T07:23:56.224Z,101267.00
2022-10-18T07:26:29.678Z,101276.75
2022-10-18T07:29:01.608Z,101272.38
2022-10-18T07:31:30.149Z,101271.13
2022-10-18T07:33:58.210Z,101280.25
2022-10-18T07:36:26.257Z,101283.38
2022-10-18T07:38:54.266Z,101278.41
2022-10-18T07:41:22.458Z,101280.75
2022-10-18T07:43:52.004Z,101276.69
2022-10-18T07:46:21.880Z,101267.81
2022-10-18T07:48:50.354Z,101276.66
2022-10-18T07:51:19.946Z,101266.53
2022-10-18T07:53:48.088Z,101269.84
2022-10-18T07:56:21.032Z,101262.91
2022-10-18T07:58:54.457Z,101265.22
2022-10-18T08:01:24.648Z,101269.53
2022-10-18T08:03:53.330Z,101258.13
2022-10-18T08:06:22.879Z,101261.38
2022-10-18T08:08:52.201Z,101255.22
2022-10-18T08:11:25.141Z,101251.25
2022-10-18T08:13:54.335Z,101243.59
2022-10-18T08:16:24.931Z,101241.25
2022-10-18T08:18:53.268Z,101237.84
2022-10-18T08:21:21.791Z,101250.28
2022-10-18T08:23:50.160Z,101235.72
2022-10-18T08:26:20.951Z,101245.53
2022-10-18T08:28:54.376Z,101243.53
2022-10-18T08:31:31.546Z,101244.16
2022-10-18T08:34:00.035Z,101240.66
2022-10-18T08:36:27.760Z,101233.25
2022-10-18T08:38:55.502Z,101234.72
2022-10-18T08:41:38.487Z,101231.09
2022-10-18T08:44:33.827Z,101238.06
2022-10-18T08:47:05.637Z,101235.47
2022-10-18T08:49:47.078Z,101229.50
2022-10-18T08:52:53.631Z,101223.09
2022-10-18T08:55:42.165Z,101231.66
2022-10-18T08:58:23.355Z,101225.50
2022-10-18T09:01:07.280Z,101223.78
2022-10-18T09:04:05.917Z,101222.16
2022-10-18T09:06:47.867Z,101219.88
2022-10-18T09:09:18.497Z,101227.91
2022-10-18T09:12:17.089Z,101223.25
2022-10-18T09:15:13.856Z,101221.06
2022-10-18T09:17:54.927Z,101215.28
2022-10-18T09:20:27.685Z,101220.09
2022-10-18T09:23:12.281Z,101221.78
2022-10-18T09:25:56.176Z,101220.91
2022-10-18T09:28:36.652Z,101224.19
2022-10-18T09:31:16.740Z,101216.41
2022-10-18T09:34:08.367Z,101213.31
2022-10-18T09:36:38.664Z,101214.94
2022-10-18T09:39:12.188Z,101209.31
2022-10-18T09:42:19.393Z,101205.09
2022-10-18T09:45:02.071Z,101196.34
2022-10-18T09:47:46.082Z,101200.00
2022-10-18T09:50:40.207Z,101194.00
2022-10-18T09:53:15.950Z,101188.66
2022-10-18T09:56:12.035Z,101177.69
2022-10-18T09:58:46.469Z,101183.13
2022-10-18T10:01:19.575Z,101173.50
2022-10-18T10:03:47.281Z,101165.16
2022-10-18T10:06:17.102Z,101163.88
2022-10-18T10:08:50.115Z,101160.13
2022-10-18T10:11:34.779Z,101150.94
2022-10-18T10:14:30.284Z,101148.09
2022-10-18T10:17:05.836Z,101143.06
2022-10-18T10:19:37.726Z,101134.50
2022-10-18T10:22:12.440Z,101135.56
2022-10-18T10:24:55.346Z,101122.63
2022-10-18T10:27:34.623Z,101121.69
2022-10-18T10:30:07.027Z,101121.91
2022-10-18T10:32:49.974Z,101110.16
2022-10-18T10:35:54.368Z,101104.16
2022-10-18T10:38:28.146Z,101103.63
2022-10-18T10:40:56.798Z,101096.44
2022-10-18T10:43:38.617Z,101096.84
2022-10-18T10:46:09.477Z,101090.56
2022-10-18T10:48:46.021Z,101093.91
2022-10-18T10:51:16.329Z,101083.31
2022-10-18T10:53:50.856Z,101076.25
2022-10-18T10:56:30.591Z,101071.59
2022-10-18T10:59:17.984Z,101067.38
2022-10-18T11:01:49.730Z,101066.31
2022-10-18T11:04:44.435Z,101061.84
2022-10-18T11:07:33.706Z,101052.22
2022-10-18T11:10:12.482Z,101054.63
2022-10-18T11:12:46.330Z,101047.13
2022-10-18T11:15:35.895Z,101050.94
2022-10-18T11:18:22.155Z,101053.72
2022-10-18T11:20:58.357Z,101044.34
2022-10-18T11:23:32.407Z,101052.56
2022-10-18T11:26:11.353Z,101044.25
2022-10-18T11:29:08.888Z,101044.94
2022-10-18T11:32:01.830Z,101038.31
2022-10-18T11:34:47.434Z,101040.94
2022-10-18T11:37:39.702Z,101033.38
2022-10-18T11:40:32.288Z,101032.22
2022-10-18T11:43:18.977Z,101029.66
2022-10-18T11:46:04.647Z,101019.41
2022-10-18T11:48:44.416Z,101021.53
2022-10-18T11:51:38.700Z,101022.19
2022-10-18T11:54:26.487Z,101008.13
2022-10-18T11:57:12.300Z,101011.44
2022-10-18T12:00:10.118Z,101004.81
2022-10-18T12:03:00.657Z,101000.53
2022-10-18T12:05:30.935Z,100990.09
2022-10-18T12:08:20.127Z,100986.03
2022-10-18T12:11:05.532Z,100983.72
2022-10-18T12:13:57.786Z,100980.34
2022-10-18T12:16:49.904Z,100975.31
2022-10-18T12:19:27.041Z,100984.44
2022-10-18T12:22:05.859Z,100983.91
2022-10-18T12:24:35.579Z,100976.97
2022-10-18T12:27:03.823Z,100972.94
2022-10-18T12:29:47.972Z,100961.78
2022-10-18T12:32:29.877Z,100955.69
2022-10-18T12:35:18.204Z,100947.88
2022-10-18T12:37:53.295Z,100944.50
2022-10-18T12:40:26.094Z,100947.66
2022-10-18T12:42:54.448Z,100930.63
2022-10-18T12:45:27.753Z,100928.09
2022-10-18T12:48:00.512Z,100923.06
2022-10-18T12:50:35.910Z,100920.75
2022-10-18T12:53:12.850Z,100923.13
2022-10-18T12:58:22.317Z,100902.47
2022-10-18T13:00:49.935Z,100904.91
2022-10-18T13:03:18.063Z,100899.38
2022-10-18T13:05:54.299Z,100898.25
2022-10-18T13:08:35.237Z,100898.34
2022-10-18T13:11:11.879Z,100901.94
2022-10-18T13:14:00.236Z,100893.34
2022-10-18T13:16:42.913Z,100889.66
2022-10-18T13:19:23.729Z,100892.50
2022-10-18T13:21:56.830Z,100897.66
2022-10-18T13:24:30.459Z,100883.94
2022-10-18T13:27:24.068Z,100887.00
2022-10-18T13:30:03.058Z,100878.91
2022-10-18T13:33:03.364Z,100873.25
2022-10-18T13:35:48.216Z,100862.19
2022-10-18T13:38:39.239Z,100867.09
2022-10-18T13:41:11.056Z,100857.09
2022-10-18T13:43:56.719Z,100860.91
2022-10-18T13:46:44.502Z,100849.41
2022-10-18T13:49:17.646Z,100850.88
2022-10-18T13:52:13.446Z,100840.13
2022-10-18T13:54:49.930Z,100839.78
2022-10-18T13:57:29.710Z,100836.56
2022-10-18T14:00:15.308Z,100828.53
2022-10-18T14:03:51.431Z,100826.69
2022-10-18T14:06:22.669Z,100828.03
2022-10-18T14:08:57.703Z,100825.06
2022-10-18T14:11:46.035Z,100808.56
2022-10-18T14:14:26.742Z,100809.69
2022-10-18T14:17:15.429Z,100811.72
2022-10-18T14:19:52.254Z,100810.66
2022-10-18T14:22:22.794Z,100799.38
2022-10-18T14:24:58.695Z,100807.84
2022-10-18T14:27:33.017Z,100804.88
2022-10-18T14:30:18.666Z,100803.97
2022-10-18T14:32:49.586Z,100793.72
2022-10-18T14:35:32.713Z,100791.47
2022-10-18T14:38:02.409Z,100789.00
2022-10-18T14:40:40.859Z,100782.56
2022-10-18T14:43:14.784Z,100776.31
2022-10-18T14:45:43.351Z,100772.72
2022-10-18T14:48:21.088Z,100765.88
2022-10-18T14:50:59.385Z,100765.69
2022-10-18T14:53:34.571Z,100763.78
2022-10-18T14:56:07.364Z,100766.66
2022-10-18T14:58:37.852Z,100759.31
2022-10-18T15:01:06.020Z,100753.97
2022-10-18T15:03:35.747Z,100762.13
2022-10-18T15:06:05.841Z,100758.91
2022-10-18T15:08:37.838Z,100765.47
2022-10-18T15:11:10.496Z,100760.75
2022-10-18T15:13:56.921Z,100764.13
2022-10-18T15:16:29.219Z,100763.88
2022-10-18T15:19:04.489Z,100758.19
2022-10-18T15:21:32.922Z,100761.41
2022-10-18T15:24:38.003Z,100754.31
2022-10-18T15:27:23.960Z,100754.69
2022-10-18T15:29:52.581Z,100756.19
2022-10-18T15:32:29.858Z,100757.59
2022-10-18T15:35:15.893Z,100757.31
2022-10-18T15:37:48.532Z,100755.56
2022-10-18T15:40:29.271Z,100748.94
2022-10-18T15:42:59.674Z,100753.44
2022-10-18T15:45:34.788Z,100748.06
2022-10-18T15:48:12.957Z,100755.22
2022-10-18T15:50:43.696Z,100764.25
2022-10-18T15:53:37.194Z,100775.41
2022-10-18T15:56:37.883Z,100772.91
2022-10-18T15:59:21.028Z,100784.44
2022-10-18T16:01:49.003Z,100786.56
2022-10-18T16:04:25.755Z,100791.41
2022-10-18T16:06:55.523Z,100786.03
2022-10-18T16:09:25.372Z,100783.63
2022-10-18T16:11:57.051Z,100793.72
2022-10-18T16:14:26.529Z,100827.63
2022-10-18T16:17:00.641Z,100832.59
2022-10-18T16:19:29.047Z,100823.31
2022-10-18T16:21:56.849Z,100834.06
2022-10-18T16:24:24.635Z,100852.78
2022-10-18T16:26:53.156Z,100870.59
2022-10-18T16:29:28.757Z,100880.91
2022-10-18T16:31:58.260Z,100859.41
2022-10-18T16:34:27.380Z,100845.16
2022-10-18T16:36:55.698Z,100840.47
2022-10-18T16:39:24.080Z,100837.44
2022-10-18T16:41:51.759Z,100833.81
2022-10-18T16:44:19.656Z,100833.88
2022-10-18T16:46:51.086Z,100812.22
2022-10-18T16:49:26.023Z,100811.66
2022-10-18T16:51:55.291Z,100833.69
2022-10-18T16:54:23.660Z,100826.91
2022-10-18T16:56:51.344Z,100841.94
2022-10-18T16:59:29.107Z,100840.47
2022-10-18T17:01:57.235Z,100837.84
2022-10-18T17:04:25.121Z,100830.13
2022-10-18T17:06:54.633Z,100844.97
2022-10-18T17:09:22.443Z,100857.41
2022-10-18T17:11:50.486Z,100863.16
2022-10-18T17:14:18.212Z,100861.00
2022-10-18T17:16:48.775Z,100866.56
2022-10-18T17:19:20.778Z,100856.16
2022-10-18T17:21:48.279Z,100860.66
2022-10-18T17:24:16.065Z,100873.94
2022-10-18T17:26:43.898Z,100875.53
2022-10-18T17:29:11.730Z,100874.88
2022-10-18T17:31:39.435Z,100873.94
2022-10-18T17:34:07.535Z,100870.06
2022-10-18T17:36:35.132Z,100863.16
2022-10-18T17:39:03.901Z,100878.09
2022-10-18T17:41:31.619Z,100883.19
2022-10-18T17:43:59.412Z,100876.19
2022-10-18T17:46:27.407Z,100886.75
2022-10-18T17:48:55.177Z,100893.84
2022-10-18T17:51:23.001Z,100892.28
2022-10-18T17:53:50.879Z,100880.34
2022-10-18T17:56:18.580Z,100874.88
2022-10-18T17:58:50.351Z,100882.38
2022-10-18T18:01:21.411Z,100872.81
2022-10-18T18:03:49.530Z,100881.03
2022-10-18T18:06:22.574Z,100895.91
2022-10-18T18:08:50.853Z,100916.47
2022-10-18T18:11:18.740Z,100923.09
2022-10-18T18:13:46.601Z,100923.97
2022-10-18T18:16:22.723Z,100925.69
2022-10-18T18:18:53.454Z,100910.28
2022-10-18T18:21:22.143Z,100904.22
2022-10-18T18:23:51.084Z,100904.38
2022-10-18T18:26:20.078Z,100899.34
2022-10-18T18:28:48.750Z,100888.13
2022-10-18T18:31:25.563Z,100879.34
2022-10-18T18:33:55.559Z,100882.06
2022-10-18T18:36:25.050Z,100870.66
2022-10-18T18:38:56.999Z,100857.59
2022-10-18T18:41:27.294Z,100850.75
2022-10-18T18:43:56.823Z,100846.41
2022-10-18T18:46:26.801Z,100842.28
2022-10-18T18:48:56.378Z,100854.63
2022-10-18T18:51:26.662Z,100850.97
2022-10-18T18:53:54.680Z,100854.53
2022-10-18T18:56:25.478Z,100854.53
2022-10-18T18:58:54.411Z,100867.66
2022-10-18T19:01:25.379Z,100864.47
2022-10-18T19:03:55.981Z,100876.81
2022-10-18T19:06:24.856Z,100884.53
2022-10-18T19:08:54.584Z,100890.66
2022-10-18T19:11:23.002Z,100905.75
2022-10-18T19:13:50.836Z,100912.63
2022-10-18T19:16:18.490Z,100920.63
2022-10-18T19:18:56.064Z,100919.66
2022-10-18T19:21:25.899Z,100921.06
2022-10-18T19:23:56.108Z,100911.56
2022-10-18T19:26:34.047Z,100913.34
2022-10-18T19:29:13.421Z,100905.41
2022-10-18T19:31:41.842Z,100905.50
2022-10-18T19:34:11.684Z,100908.94
2022-10-18T19:36:41.267Z,100912.59
2022-10-18T19:39:29.513Z,100912.75
2022-10-18T19:42:00.180Z,100915.69
2022-10-18T19:44:31.085Z,100917.41
2022-10-18T19:46:59.486Z,100911.41
2022-10-18T19:49:28.695Z,100912.38
2022-10-18T19:51:57.301Z,100903.69
2022-10-18T19:54:26.831Z,100911.00
2022-10-18T19:56:54.426Z,100894.78
2022-10-18T19:59:22.881Z,100893.22
2022-10-18T20:01:50.712Z,100904.16
2022-10-18T20:04:18.640Z,100898.53
2022-10-18T20:06:46.694Z,100895.25
2022-10-18T20:09:19.330Z,100900.72
2022-10-18T20:11:48.726Z,100902.88
2022-10-18T20:14:16.457Z,100897.19
2022-10-18T20:16:44.053Z,100893.75
2022-10-18T20:19:12.071Z,100888.59
2022-10-18T20:21:39.998Z,100887.81
2022-10-18T20:24:09.502Z,100888.50
2022-10-18T20:26:37.385Z,100888.59
2022-10-18T20:29:05.859Z,100891.22
2022-10-18T20:31:37.162Z,100888.59
2022-10-18T20:34:07.904Z,100883.00
2022-10-18T20:36:36.187Z,100877.19
2022-10-18T20:39:04.905Z,100883.19
2022-10-18T20:41:36.406Z,100878.09
2022-10-18T20:44:12.127Z,100874.66
2022-10-18T20:46:40.451Z,100877.97
2022-10-18T20:49:10.917Z,100886.41
2022-10-18T20:51:38.557Z,100888.81
2022-10-18T20:54:07.947Z,100887.81
2022-10-18T20:56:38.095Z,100888.16
2022-10-18T20:59:09.483Z,100884.47
2022-10-18T21:01:38.961Z,100888.28
2022-10-18T21:04:09.287Z,100892.03
2022-10-18T21:06:42.829Z,100884.09
2022-10-18T21:09:18.874Z,100885.66
2022-10-18T21:11:49.489Z,100888.03
2022-10-18T21:14:19.778Z,100881.03
2022-10-18T21:16:48.563Z,100884.03
2022-10-18T21:19:24.259Z,100868.34
2022-10-18T21:21:54.939Z,100875.06
2022-10-18T21:24:24.272Z,100876.94
2022-10-18T21:26:52.571Z,100870.34
2022-10-18T21:29:22.636Z,100872.88
2022-10-18T21:31:59.333Z,100874.75
2022-10-18T21:34:27.495Z,100873.78
2022-10-18T21:36:55.092Z,100880.41
2022-10-18T21:41:57.043Z,100875.50
2022-10-18T21:44:25.010Z,100872.13
2022-10-18T21:46:52.705Z,100874.69
2022-10-18T21:49:23.356Z,100879.56
2022-10-18T21:51:51.094Z,100873.31
2022-10-18T21:54:18.942Z,100872.31
2022-10-18T21:56:46.631Z,100880.41
2022-10-18T21:59:14.762Z,100879.44
2022-10-18T22:01:44.589Z,100890.06
2022-10-18T22:04:24.656Z,100884.59
2022-10-18T22:06:52.453Z,100885.78
2022-10-18T22:09:21.234Z,100883.50
2022-10-18T22:11:51.588Z,100872.47
2022-10-18T22:14:19.656Z,100873.38
2022-10-18T22:16:47.269Z,100874.81
2022-10-18T22:19:15.202Z,100868.06
2022-10-18T22:21:43.046Z,100872.69
2022-10-18T22:24:10.976Z,100869.63
2022-10-18T22:26:42.300Z,100872.31
2022-10-18T22:29:17.406Z,100868.94
2022-10-18T22:31:50.660Z,100866.31
2022-10-18T22:34:21.832Z,100862.47
2022-10-18T22:36:50.200Z,100859.78
2022-10-18T22:39:18.215Z,100864.00
2022-10-18T22:41:46.609Z,100864.88
2022-10-18T22:44:15.458Z,100864.88
2022-10-18T22:46:43.247Z,100857.38
2022-10-18T22:49:12.108Z,100859.72
2022-10-18T22:51:40.389Z,100867.09
2022-10-18T22:54:08.489Z,100866.53
2022-10-18T22:56:36.089Z,100872.25
2022-10-18T22:59:03.943Z,100858.34
2022-10-18T23:01:31.499Z,100862.53
2022-10-18T23:04:01.132Z,100864.81
2022-10-18T23:06:31.741Z,100869.63
2022-10-18T23:09:01.764Z,100859.66
2022-10-18T23:11:29.637Z,100867.56
2022-10-18T23:13:57.506Z,100864.00
2022-10-18T23:16:25.367Z,100850.88
2022-10-18T23:18:57.865Z,100864.38
2022-10-18T23:21:28.084Z,100849.00
2022-10-18T23:23:56.764Z,100849.69
2022-10-18T23:26:27.353Z,100861.13
2022-10-18T23:28:55.988Z,100857.13
2022-10-18T23:31:31.127Z,100853.47
2022-10-18T23:34:01.940Z,100856.97
2022-10-18T23:36:30.243Z,100860.22
2022-10-18T23:38:58.569Z,100847.00
2022-10-18T23:41:26.636Z,100851.91
2022-10-18T23:43:54.827Z,100846.78
2022-10-18T23:46:22.898Z,100840.72
2022-10-18T23:48:51.158Z,100844.94
2022-10-18T23:51:18.847Z,100842.47
2022-10-18T23:53:46.962Z,100851.34
2022-10-18T23:56:16.441Z,100851.28
2022-10-18T23:58:44.867Z,100851.91
